Terminal Aerodrome Forecast
Issued by NWS

Home | Current Version | Previous Version | Text Only | Print | Product List | Glossary On
Versions: 1 2 3 4 5 6 7 8 9 10 11 12 13 14 15 16 17 18 19 20 21
000
FTUS41 KOKX 041751
TAFSWF
TAF
KSWF 041751Z 0418/0524 25012G20KT P6SM FEW100
     FM042300 24009KT P6SM FEW100
     FM050400 25005KT P6SM FEW070
     FM050900 29008KT P6SM BKN070
     FM051200 30008KT P6SM BKN060 PROB30 0512/0515 -SHRA
     FM051500 34006KT P6SM VCSH BKN045 PROB30 0515/0521 -SHRA
      AMD NOT SKED=

USA.gov is the U.S. government's official web portal to all federal, state and local government web resources and services.